EGPB/LSI METAR and TAF weather

Enter ICAO airport designator
Station Type Date Time Source
EGPB METAR 2020/03/29 21:20 UTC NOAA

EGPB 292120Z 33014KT 9999 FEW016 06/03 Q1039


Station Type Date Time Source
EGPB Decoded METAR 2020/03/29 21:20 UTC NOAA

Sumburgh Cape , United Kingdom (EGPB) 59-53N 001-18W
Mar 29, 2020 - 05:20 PM EDT / 2020.03.29 2120 UTC
Wind: from the NNW (330 degrees) at 16 MPH (14 KT):0
Visibility: greater than 7 mile(s):0
Sky conditions: mostly clear
Temperature: 42 F (6 C)
Dew Point: 37 F (3 C)
Relative Humidity: 81%
Pressure (altimeter): 30.68 in. Hg (1039 hPa)
ob: EGPB 292120Z 33014KT 9999 FEW016 06/03 Q1039
cycle: 21

Station Type Date Time Source
EGPB TAF UTC NOAA

Error!

Example: see airport list